Terminal Aerodrome Forecast
Issued by NWS

Home | Current Version | Previous Version | Graphics & Text | Print | Product List | Glossary On
Versions: 1 2 3 4 5 6 7 8 9 10 11 12 13 14 15 16 17 18 19 20 21 22
000
FTUS43 KABR 251050 AAB
TAFATY
TAF AMD
KATY 251050Z 2511/2606 36014KT 3SM BR OVC002
     FM251400 01014G21KT P6SM OVC008
     FM260200 01017G26KT 4SM -RA BR OVC007=

USA.gov is the U.S. government's official web portal to all federal, state and local government web resources and services.